createdAt,value
2022-11-19T00:01:26.349Z,22.00
2022-11-19T00:03:54.694Z,21.50
2022-11-19T00:06:25.135Z,21.70
2022-11-19T00:08:53.609Z,22.00
2022-11-19T00:11:42.257Z,21.50
2022-11-19T00:14:12.614Z,23.10
2022-11-19T00:16:40.867Z,21.70
2022-11-19T00:19:11.003Z,21.80
2022-11-19T00:21:38.801Z,23.20
2022-11-19T00:24:07.111Z,21.20
2022-11-19T00:26:34.826Z,21.90
2022-11-19T00:29:02.553Z,21.40
2022-11-19T00:31:30.211Z,22.90
2022-11-19T00:33:57.809Z,22.20
2022-11-19T00:36:25.374Z,21.50
2022-11-19T00:38:52.943Z,22.10
2022-11-19T00:41:20.591Z,20.30
2022-11-19T00:43:49.039Z,20.20
2022-11-19T00:46:22.208Z,20.90
2022-11-19T00:48:51.304Z,21.10
2022-11-19T00:51:20.057Z,20.30
2022-11-19T00:53:47.832Z,20.20
2022-11-19T00:56:18.136Z,20.50
2022-11-19T00:58:46.441Z,21.30
2022-11-19T01:01:15.294Z,20.30
2022-11-19T01:03:45.617Z,20.20
2022-11-19T01:06:18.858Z,19.30
2022-11-19T01:08:48.235Z,19.80
2022-11-19T01:11:19.951Z,19.40
2022-11-19T01:13:48.385Z,19.10
2022-11-19T01:16:22.034Z,20.00
2022-11-19T01:18:50.721Z,19.80
2022-11-19T01:21:19.984Z,19.70
2022-11-19T01:23:48.030Z,19.30
2022-11-19T01:26:16.243Z,18.80
2022-11-19T01:28:44.518Z,19.80
2022-11-19T01:31:19.403Z,17.90
2022-11-19T01:33:47.939Z,18.10
2022-11-19T01:36:23.757Z,18.20
2022-11-19T01:38:51.890Z,17.80
2022-11-19T01:41:28.437Z,17.60
2022-11-19T01:43:59.288Z,17.70
2022-11-19T01:46:29.911Z,17.30
2022-11-19T01:49:04.649Z,16.70
2022-11-19T01:51:39.090Z,16.70
2022-11-19T01:54:35.906Z,16.80
2022-11-19T01:57:08.177Z,17.80
2022-11-19T01:59:36.299Z,16.80
2022-11-19T02:02:03.943Z,17.00
2022-11-19T02:04:32.551Z,17.70
2022-11-19T02:07:01.726Z,17.80
2022-11-19T02:09:29.513Z,17.80
2022-11-19T02:12:07.820Z,17.70
2022-11-19T02:14:49.257Z,17.90
2022-11-19T02:17:26.025Z,17.90
2022-11-19T02:20:24.492Z,17.90
2022-11-19T02:23:27.647Z,17.40
2022-11-19T02:26:24.749Z,18.10
2022-11-19T02:28:55.534Z,18.40
2022-11-19T02:31:49.911Z,18.90
2022-11-19T02:34:38.869Z,18.00
2022-11-19T02:37:15.120Z,17.50
2022-11-19T02:39:52.868Z,18.20
2022-11-19T02:42:34.124Z,18.10
2022-11-19T02:45:30.935Z,18.60
2022-11-19T02:48:12.013Z,17.90
2022-11-19T02:50:46.345Z,19.60
2022-11-19T02:53:14.116Z,18.50
2022-11-19T02:55:41.966Z,18.30
2022-11-19T02:58:33.183Z,18.20
2022-11-19T03:01:21.304Z,18.30
2022-11-19T03:04:08.167Z,19.00
2022-11-19T03:06:36.023Z,19.00
2022-11-19T03:09:03.968Z,19.20
2022-11-19T03:11:32.471Z,19.00
2022-11-19T03:14:27.867Z,19.30
2022-11-19T03:17:02.156Z,17.90
2022-11-19T03:19:54.316Z,17.90
2022-11-19T03:22:26.736Z,17.50
2022-11-19T03:25:38.218Z,17.70
2022-11-19T03:28:12.028Z,18.00
2022-11-19T03:30:41.030Z,17.90
2022-11-19T03:33:11.346Z,19.10
2022-11-19T03:35:52.176Z,18.50
2022-11-19T03:38:29.730Z,19.80
2022-11-19T03:40:58.092Z,19.50
2022-11-19T03:43:28.141Z,19.50
2022-11-19T03:45:57.331Z,20.10
2022-11-19T03:48:25.994Z,19.40
2022-11-19T03:50:57.979Z,18.90
2022-11-19T03:53:25.979Z,20.10
2022-11-19T03:56:05.155Z,19.00
2022-11-19T03:58:38.341Z,19.30
2022-11-19T04:01:06.434Z,20.50
2022-11-19T04:03:34.295Z,21.20
2022-11-19T04:06:03.080Z,20.40
2022-11-19T04:08:31.157Z,20.40
2022-11-19T04:13:25.545Z,21.30
2022-11-19T04:15:53.144Z,21.10
2022-11-19T04:18:20.715Z,21.20
2022-11-19T04:20:48.298Z,22.00
2022-11-19T04:23:15.861Z,23.00
2022-11-19T04:25:47.335Z,22.10
2022-11-19T04:28:15.015Z,21.50
2022-11-19T04:30:43.063Z,22.20
2022-11-19T04:33:10.650Z,22.90
2022-11-19T04:35:38.209Z,23.30
2022-11-19T04:38:05.771Z,24.10
2022-11-19T04:40:33.328Z,24.40
2022-11-19T04:43:01.189Z,24.30
2022-11-19T04:45:28.734Z,23.00
2022-11-19T04:47:56.295Z,23.70
2022-11-19T04:50:23.922Z,25.40
2022-11-19T04:52:51.562Z,25.50
2022-11-19T04:55:19.132Z,26.00
2022-11-19T04:57:46.708Z,24.60
2022-11-19T05:00:15.360Z,24.50
2022-11-19T05:02:43.007Z,25.40
2022-11-19T05:05:10.640Z,24.90
2022-11-19T05:07:38.253Z,25.90
2022-11-19T05:10:06.307Z,26.00
2022-11-19T05:12:33.886Z,25.20
2022-11-19T05:15:01.738Z,24.50
2022-11-19T05:17:29.344Z,23.90
2022-11-19T05:19:59.568Z,25.50
2022-11-19T05:22:27.195Z,25.50
2022-11-19T05:24:54.784Z,24.30
2022-11-19T05:27:22.396Z,23.70
2022-11-19T05:29:50.228Z,24.80
2022-11-19T05:32:17.807Z,25.30
2022-11-19T05:34:45.364Z,25.30
2022-11-19T05:37:12.927Z,24.70
2022-11-19T05:39:40.505Z,25.10
2022-11-19T05:42:08.092Z,24.30
2022-11-19T05:44:35.672Z,24.60
2022-11-19T05:47:03.347Z,25.60
2022-11-19T05:49:30.925Z,26.20
2022-11-19T05:51:58.582Z,26.10
2022-11-19T05:54:26.224Z,26.40
2022-11-19T05:56:53.878Z,25.60
2022-11-19T05:59:22.024Z,27.20
2022-11-19T06:01:49.786Z,26.00
2022-11-19T06:04:17.516Z,26.90
2022-11-19T06:06:45.526Z,27.40
2022-11-19T06:09:13.117Z,28.30
2022-11-19T06:11:53.017Z,28.10
2022-11-19T06:14:22.832Z,28.50
2022-11-19T06:16:55.130Z,28.50
2022-11-19T06:19:23.567Z,28.70
2022-11-19T06:21:51.962Z,29.50
2022-11-19T06:24:19.638Z,28.30
2022-11-19T06:26:47.542Z,28.10
2022-11-19T06:29:16.844Z,29.20
2022-11-19T06:31:45.187Z,29.80
2022-11-19T06:34:13.182Z,30.40
2022-11-19T06:36:46.242Z,28.70
2022-11-19T06:39:17.197Z,29.80
2022-11-19T06:41:45.020Z,30.10
2022-11-19T06:44:12.571Z,31.70
2022-11-19T06:46:40.339Z,31.70
2022-11-19T06:49:09.057Z,31.00
2022-11-19T06:51:36.645Z,35.80
2022-11-19T06:54:04.251Z,34.30
2022-11-19T06:56:31.808Z,32.10
2022-11-19T06:58:59.663Z,30.70
2022-11-19T07:01:27.610Z,30.90
2022-11-19T07:03:55.237Z,55.40
2022-11-19T07:06:22.833Z,47.80
2022-11-19T07:08:50.376Z,39.80
2022-11-19T07:11:27.072Z,41.30
2022-11-19T07:13:57.822Z,83.20
2022-11-19T07:16:30.780Z,53.30
2022-11-19T07:19:04.007Z,42.10
2022-11-19T07:21:32.211Z,38.30
2022-11-19T07:24:01.355Z,35.40
2022-11-19T07:26:30.962Z,34.20
2022-11-19T07:29:04.834Z,34.70
2022-11-19T07:31:33.394Z,30.80
2022-11-19T07:34:01.075Z,28.00
2022-11-19T07:36:28.707Z,26.60
2022-11-19T07:38:57.621Z,24.80
2022-11-19T07:42:03.947Z,23.10
2022-11-19T07:44:34.264Z,25.20
2022-11-19T07:47:02.380Z,29.50
2022-11-19T07:49:29.995Z,25.20
2022-11-19T07:51:57.623Z,19.90
2022-11-19T07:54:25.330Z,20.20
2022-11-19T07:56:52.911Z,20.60
2022-11-19T07:59:20.784Z,23.10
2022-11-19T08:01:48.785Z,17.50
2022-11-19T08:04:16.639Z,20.20
2022-11-19T08:06:44.240Z,21.50
2022-11-19T08:09:12.103Z,21.30
2022-11-19T08:11:40.510Z,18.40
2022-11-19T08:14:08.518Z,17.30
2022-11-19T08:16:55.016Z,20.20
2022-11-19T08:19:23.131Z,19.20
2022-11-19T08:21:51.323Z,17.90
2022-11-19T08:24:20.588Z,17.40
2022-11-19T08:26:49.071Z,12.80
2022-11-19T08:29:18.451Z,11.60
2022-11-19T08:31:47.875Z,11.60
2022-11-19T08:34:16.635Z,10.60
2022-11-19T08:36:44.347Z,10.20
2022-11-19T08:39:11.988Z,11.40
2022-11-19T08:41:58.179Z,11.20
2022-11-19T08:44:25.802Z,10.80
2022-11-19T08:46:53.656Z,11.70
2022-11-19T08:49:21.366Z,10.20
2022-11-19T08:51:48.959Z,14.40
2022-11-19T08:54:16.994Z,12.40
2022-11-19T08:56:44.963Z,12.30
2022-11-19T08:59:12.524Z,12.90
2022-11-19T09:01:40.110Z,16.30
2022-11-19T09:04:07.707Z,14.30
2022-11-19T09:06:35.426Z,15.60
2022-11-19T09:09:04.383Z,13.90
2022-11-19T09:11:32.103Z,10.40
2022-11-19T09:13:59.664Z,9.50
2022-11-19T09:16:27.578Z,10.20
2022-11-19T09:18:55.165Z,10.80
2022-11-19T09:21:22.765Z,10.60
2022-11-19T09:23:50.351Z,12.00
2022-11-19T09:26:18.727Z,11.70
2022-11-19T09:28:46.426Z,13.90
2022-11-19T09:31:16.768Z,13.00
2022-11-19T09:33:50.045Z,13.30
2022-11-19T09:36:18.537Z,12.10
2022-11-19T09:38:46.889Z,12.70
2022-11-19T09:41:17.554Z,13.30
2022-11-19T09:43:49.103Z,14.30
2022-11-19T09:46:24.781Z,12.60
2022-11-19T09:48:54.314Z,13.70
2022-11-19T09:51:29.013Z,12.00
2022-11-19T09:53:59.016Z,11.80
2022-11-19T09:56:31.071Z,12.10
2022-11-19T09:58:59.002Z,12.20
2022-11-19T10:01:28.262Z,11.20
2022-11-19T10:03:56.064Z,12.70
2022-11-19T10:06:34.763Z,13.50
2022-11-19T10:09:05.390Z,13.30
2022-11-19T10:11:53.464Z,15.80
2022-11-19T10:14:36.396Z,17.80
2022-11-19T10:17:06.645Z,19.20
2022-11-19T10:19:41.279Z,18.60
2022-11-19T10:22:20.510Z,16.80
2022-11-19T10:24:57.538Z,16.70
2022-11-19T10:27:37.073Z,16.20
2022-11-19T10:30:16.859Z,15.50
2022-11-19T10:32:51.468Z,17.80
2022-11-19T10:35:24.125Z,18.20
2022-11-19T10:37:58.580Z,19.20
2022-11-19T10:40:43.752Z,19.60
2022-11-19T10:43:38.108Z,18.00
2022-11-19T10:46:09.442Z,19.20
2022-11-19T10:48:43.463Z,17.70
2022-11-19T10:51:23.421Z,17.60
2022-11-19T10:53:51.530Z,17.20
2022-11-19T10:56:22.220Z,16.50
2022-11-19T10:58:58.410Z,15.80
2022-11-19T11:01:32.000Z,16.80
2022-11-19T11:04:17.336Z,16.50
2022-11-19T11:06:55.622Z,15.30
2022-11-19T11:09:37.866Z,15.70
2022-11-19T11:12:44.387Z,16.10
2022-11-19T11:15:19.019Z,16.40
2022-11-19T11:17:47.543Z,14.80
2022-11-19T11:20:18.150Z,14.60
2022-11-19T11:22:48.969Z,15.90
2022-11-19T11:25:22.173Z,14.10
2022-11-19T11:28:05.427Z,13.40
2022-11-19T11:30:34.077Z,14.50
2022-11-19T11:33:24.232Z,14.70
2022-11-19T11:35:53.263Z,15.00
2022-11-19T11:38:24.508Z,16.20
2022-11-19T11:44:04.625Z,15.30
2022-11-19T11:46:38.356Z,15.90
2022-11-19T11:49:20.725Z,15.50
2022-11-19T11:51:56.871Z,15.50
2022-11-19T11:54:24.635Z,14.40
2022-11-19T11:56:52.204Z,12.90
2022-11-19T11:59:23.070Z,14.10
2022-11-19T12:02:19.849Z,14.60
2022-11-19T12:04:49.422Z,14.20
2022-11-19T12:07:47.940Z,15.10
2022-11-19T12:10:52.205Z,19.00
2022-11-19T12:13:42.803Z,17.40
2022-11-19T12:16:20.390Z,21.40
2022-11-19T12:19:02.121Z,19.60
2022-11-19T12:21:41.696Z,17.80
2022-11-19T12:24:18.769Z,17.80
2022-11-19T12:27:31.760Z,17.50
2022-11-19T12:30:18.234Z,18.60
2022-11-19T12:33:07.871Z,19.70
2022-11-19T12:35:47.352Z,20.00
2022-11-19T12:39:03.408Z,21.70
2022-11-19T12:41:48.095Z,19.90
2022-11-19T12:44:29.462Z,21.10
2022-11-19T12:47:22.430Z,18.20
2022-11-19T12:49:57.772Z,19.10
2022-11-19T12:52:35.679Z,20.10
2022-11-19T12:55:25.339Z,19.50
2022-11-19T12:58:17.607Z,19.00
2022-11-19T13:00:52.804Z,19.30
2022-11-19T13:03:32.958Z,17.00
2022-11-19T13:06:03.284Z,16.90
2022-11-19T13:08:43.017Z,20.20
2022-11-19T13:11:28.351Z,17.40
2022-11-19T13:14:01.068Z,16.60
2022-11-19T13:16:30.844Z,17.90
2022-11-19T13:19:14.519Z,37.50
2022-11-19T13:22:04.500Z,18.30
2022-11-19T13:24:40.371Z,20.60
2022-11-19T13:27:16.494Z,19.20
2022-11-19T13:30:18.902Z,21.10
2022-11-19T13:33:10.888Z,21.30
2022-11-19T13:35:52.972Z,23.00
2022-11-19T13:38:44.990Z,18.60
2022-11-19T13:41:24.279Z,17.90
2022-11-19T13:44:14.428Z,16.30
2022-11-19T13:46:53.481Z,16.90
2022-11-19T13:49:34.191Z,17.20
2022-11-19T13:52:07.382Z,16.50
2022-11-19T13:54:37.123Z,16.70
2022-11-19T13:57:06.122Z,16.60
2022-11-19T13:59:40.295Z,16.70
2022-11-19T14:02:27.351Z,16.10
2022-11-19T14:05:06.198Z,17.10
2022-11-19T14:07:50.154Z,17.50
2022-11-19T14:10:27.589Z,17.80
2022-11-19T14:13:16.758Z,18.60
2022-11-19T14:16:15.182Z,16.90
2022-11-19T14:19:05.098Z,21.20
2022-11-19T14:21:54.567Z,16.60
2022-11-19T14:24:44.073Z,16.90
2022-11-19T14:27:17.222Z,15.10
2022-11-19T14:29:44.776Z,15.10
2022-11-19T14:32:12.675Z,13.40
2022-11-19T14:34:46.793Z,13.10
2022-11-19T14:37:21.688Z,11.70
2022-11-19T14:39:55.770Z,13.80
2022-11-19T14:42:23.333Z,14.20
2022-11-19T14:45:02.997Z,13.90
2022-11-19T14:47:35.891Z,13.90
2022-11-19T14:50:22.259Z,13.90
2022-11-19T14:52:52.317Z,20.70
2022-11-19T14:55:23.435Z,14.90
2022-11-19T14:57:57.185Z,13.50
2022-11-19T15:00:37.649Z,13.80
2022-11-19T15:03:08.600Z,15.00
2022-11-19T15:05:40.535Z,13.20
2022-11-19T15:08:17.353Z,13.60
2022-11-19T15:11:08.022Z,14.30
2022-11-19T15:13:37.622Z,16.30
2022-11-19T15:16:17.459Z,16.30
2022-11-19T15:18:45.004Z,16.70
2022-11-19T15:21:42.250Z,16.10
2022-11-19T15:24:23.684Z,17.20
2022-11-19T15:27:17.355Z,20.10
2022-11-19T15:30:03.414Z,18.60
2022-11-19T15:32:50.031Z,19.30
2022-11-19T15:35:55.022Z,20.00
2022-11-19T15:38:22.626Z,21.80
2022-11-19T15:40:55.235Z,21.60
2022-11-19T15:43:33.547Z,21.70
2022-11-19T15:46:07.371Z,22.80
2022-11-19T15:49:01.967Z,23.70
2022-11-19T15:51:33.051Z,31.40
2022-11-19T15:54:02.742Z,22.60
2022-11-19T15:56:47.559Z,20.90
2022-11-19T15:59:17.334Z,23.70
2022-11-19T16:01:46.464Z,23.50
2022-11-19T16:04:16.053Z,24.20
2022-11-19T16:06:45.748Z,21.20
2022-11-19T16:09:19.166Z,20.20
2022-11-19T16:12:05.934Z,20.30
2022-11-19T16:14:52.299Z,21.80
2022-11-19T16:17:43.538Z,27.00
2022-11-19T16:20:12.483Z,25.60
2022-11-19T16:23:02.187Z,24.90
2022-11-19T16:25:43.034Z,24.50
2022-11-19T16:28:12.901Z,26.40
2022-11-19T16:30:48.203Z,24.50
2022-11-19T16:33:21.178Z,26.90
2022-11-19T16:35:52.849Z,27.60
2022-11-19T16:38:27.754Z,25.20
2022-11-19T16:41:15.264Z,24.20
2022-11-19T16:43:44.805Z,23.50
2022-11-19T16:46:16.044Z,25.00
2022-11-19T16:48:49.941Z,24.50
2022-11-19T16:51:40.220Z,26.30
2022-11-19T16:54:10.152Z,27.40
2022-11-19T16:56:43.955Z,29.00
2022-11-19T16:59:20.554Z,29.60
2022-11-19T17:01:54.619Z,30.90
2022-11-19T17:04:29.025Z,29.50
2022-11-19T17:06:59.806Z,27.20
2022-11-19T17:09:41.528Z,29.90
2022-11-19T17:12:27.247Z,30.80
2022-11-19T17:14:59.715Z,39.70
2022-11-19T17:17:41.206Z,28.60
2022-11-19T17:20:30.497Z,28.70
2022-11-19T17:22:59.876Z,28.20
2022-11-19T17:25:27.852Z,29.70
2022-11-19T17:27:56.924Z,27.80
2022-11-19T17:30:27.164Z,29.40
2022-11-19T17:33:04.951Z,30.70
2022-11-19T17:35:43.322Z,32.80
2022-11-19T17:38:12.162Z,34.20
2022-11-19T17:41:02.311Z,29.30
2022-11-19T17:43:51.538Z,28.70
2022-11-19T17:46:19.918Z,29.40
2022-11-19T17:48:48.993Z,30.80
2022-11-19T17:51:21.832Z,32.50
2022-11-19T17:53:51.696Z,30.60
2022-11-19T17:56:25.180Z,33.40
2022-11-19T17:58:53.407Z,33.00
2022-11-19T18:01:21.788Z,34.30
2022-11-19T18:03:49.579Z,34.40
2022-11-19T18:06:18.130Z,33.30
2022-11-19T18:08:46.121Z,32.90
2022-11-19T18:11:17.198Z,35.50
2022-11-19T18:13:45.863Z,35.10
2022-11-19T18:16:18.874Z,35.10
2022-11-19T18:18:46.960Z,33.90
2022-11-19T18:21:17.180Z,33.70
2022-11-19T18:23:45.440Z,44.50
2022-11-19T18:26:15.053Z,33.00
2022-11-19T18:28:43.830Z,34.20
2022-11-19T18:31:23.489Z,31.80
2022-11-19T18:33:51.092Z,29.90
2022-11-19T18:36:19.060Z,31.30
2022-11-19T18:38:46.866Z,32.10
2022-11-19T18:41:18.830Z,31.00
2022-11-19T18:44:05.371Z,30.60
2022-11-19T18:46:33.023Z,29.40
2022-11-19T18:49:00.647Z,30.00
2022-11-19T18:51:30.600Z,30.40
2022-11-19T18:53:58.343Z,30.90
2022-11-19T18:56:26.318Z,30.50
2022-11-19T18:58:54.502Z,32.20
2022-11-19T19:01:23.943Z,32.50
2022-11-19T19:03:52.436Z,31.80
2022-11-19T19:06:22.995Z,33.20
2022-11-19T19:08:50.686Z,31.70
2022-11-19T19:11:37.290Z,30.90
2022-11-19T19:14:04.992Z,32.20
2022-11-19T19:16:32.917Z,30.50
2022-11-19T19:19:01.696Z,30.30
2022-11-19T19:21:29.704Z,30.00
2022-11-19T19:23:57.272Z,29.70
2022-11-19T19:26:25.055Z,29.40
2022-11-19T19:28:54.446Z,30.00
2022-11-19T19:31:23.437Z,30.70
2022-11-19T19:33:51.757Z,30.50
2022-11-19T19:36:21.890Z,30.20
2022-11-19T19:38:49.495Z,30.20
2022-11-19T19:41:20.971Z,30.50
2022-11-19T19:43:50.340Z,31.50
2022-11-19T19:46:20.383Z,31.30
2022-11-19T19:48:50.102Z,29.50
2022-11-19T19:51:18.947Z,30.00
2022-11-19T19:53:47.078Z,31.50
2022-11-19T19:56:22.510Z,31.30
2022-11-19T19:58:51.197Z,30.40
2022-11-19T20:01:27.768Z,31.30
2022-11-19T20:04:06.433Z,33.10
2022-11-19T20:06:35.488Z,31.90
2022-11-19T20:09:08.947Z,36.30
2022-11-19T20:11:37.878Z,30.30
2022-11-19T20:14:05.722Z,36.20
2022-11-19T20:16:35.032Z,35.30
2022-11-19T20:19:03.379Z,32.20
2022-11-19T20:21:33.916Z,35.20
2022-11-19T20:24:07.186Z,36.40
2022-11-19T20:26:39.004Z,36.30
2022-11-19T20:29:06.845Z,32.60
2022-11-19T20:31:35.100Z,30.90
2022-11-19T20:34:04.608Z,31.70
2022-11-19T20:36:33.916Z,36.00
2022-11-19T20:39:02.098Z,32.50
2022-11-19T20:41:48.380Z,34.80
2022-11-19T20:44:20.763Z,36.60
2022-11-19T20:46:53.043Z,34.50
2022-11-19T20:49:23.337Z,40.40
2022-11-19T20:51:52.493Z,40.50
2022-11-19T20:54:21.604Z,36.50
2022-11-19T20:56:50.640Z,35.60
2022-11-19T20:59:18.949Z,46.30
2022-11-19T21:01:51.074Z,34.80
2022-11-19T21:04:19.944Z,33.50
2022-11-19T21:06:49.714Z,34.10
2022-11-19T21:09:19.923Z,34.90
2022-11-19T21:11:48.144Z,37.30
2022-11-19T21:14:15.844Z,39.10
2022-11-19T21:16:43.705Z,39.10
2022-11-19T21:19:11.588Z,40.30
2022-11-19T21:21:39.886Z,38.30
2022-11-19T21:24:08.036Z,38.70
2022-11-19T21:26:35.895Z,39.60
2022-11-19T21:29:03.827Z,39.60
2022-11-19T21:31:46.232Z,42.50
2022-11-19T21:34:17.535Z,39.00
2022-11-19T21:36:45.856Z,41.10
2022-11-19T21:39:16.197Z,37.70
2022-11-19T21:41:44.244Z,45.20
2022-11-19T21:44:14.310Z,38.50
2022-11-19T21:46:46.142Z,42.50
2022-11-19T21:49:13.846Z,40.80
2022-11-19T21:51:41.475Z,49.40
2022-11-19T21:54:09.222Z,44.70
2022-11-19T21:56:38.882Z,40.60
2022-11-19T21:59:07.376Z,37.10
2022-11-19T22:01:35.360Z,35.60
2022-11-19T22:04:04.428Z,37.30
2022-11-19T22:06:32.405Z,61.10
2022-11-19T22:09:00.173Z,37.90
2022-11-19T22:11:31.363Z,40.90
2022-11-19T22:14:07.958Z,41.90
2022-11-19T22:16:38.431Z,43.00
2022-11-19T22:19:06.955Z,43.20
2022-11-19T22:21:35.020Z,44.20
2022-11-19T22:24:03.151Z,47.80
2022-11-19T22:26:31.322Z,46.70
2022-11-19T22:28:58.932Z,50.40
2022-11-19T22:31:26.730Z,49.70
2022-11-19T22:33:54.944Z,49.20
2022-11-19T22:36:23.402Z,46.00
2022-11-19T22:38:51.928Z,47.60
2022-11-19T22:41:21.519Z,46.90
2022-11-19T22:43:49.782Z,47.50
2022-11-19T22:46:18.070Z,49.80
2022-11-19T22:48:45.999Z,50.60
2022-11-19T22:51:16.024Z,55.90
2022-11-19T22:53:44.258Z,49.40
2022-11-19T22:56:16.300Z,48.30
2022-11-19T22:58:43.982Z,53.70
2022-11-19T23:01:23.187Z,50.30
2022-11-19T23:03:51.666Z,56.60
2022-11-19T23:06:19.687Z,45.40
2022-11-19T23:08:47.339Z,46.70
2022-11-19T23:11:16.814Z,47.50
2022-11-19T23:13:45.031Z,46.80
2022-11-19T23:16:15.851Z,53.40
2022-11-19T23:18:51.471Z,47.30
2022-11-19T23:21:21.943Z,46.50
2022-11-19T23:23:50.585Z,44.30
2022-11-19T23:26:21.437Z,47.70
2022-11-19T23:28:49.666Z,53.10
2022-11-19T23:31:20.090Z,54.20
2022-11-19T23:33:48.543Z,46.90
2022-11-19T23:36:22.058Z,54.70
2022-11-19T23:38:50.090Z,50.20
2022-11-19T23:41:19.585Z,48.70
2022-11-19T23:43:48.350Z,47.30
2022-11-19T23:46:18.492Z,54.10
2022-11-19T23:48:47.934Z,53.20
2022-11-19T23:51:21.729Z,47.90
2022-11-19T23:53:49.791Z,50.10
2022-11-19T23:56:18.610Z,51.60
2022-11-19T23:58:46.477Z,50.20
